2017/08/20 23:00 VVNB 202300Z 05005KT 4500 BR NSC 26/26 Q1006 NOSIG
2017/08/20 22:30 VVDN 202230Z VRB01KT 9999 FEW015 25/24 Q1006 NOSIG
2017/08/20 23:00 VVTS 202300Z 24003KT 8000 FEW015 SCT050 25/24 Q1007 NOSIG
2017/08/20 23:00 VVPB 202300Z 18002KT 9999 FEW015 26/25 Q1006 NOSIG

Powered by MinhViet JSC.